createdAt,value
2019-06-15T00:01:25.779Z,75.00
2019-06-15T00:03:54.260Z,75.00
2019-06-15T00:06:22.973Z,75.10
2019-06-15T00:08:51.418Z,75.10
2019-06-15T00:11:19.875Z,75.10
2019-06-15T00:13:48.266Z,75.10
2019-06-15T00:16:16.706Z,75.30
2019-06-15T00:18:45.211Z,75.30
2019-06-15T00:21:13.633Z,75.30
2019-06-15T00:23:42.016Z,75.30
2019-06-15T00:26:11.364Z,75.30
2019-06-15T00:28:39.770Z,75.40
2019-06-15T00:31:08.438Z,75.50
2019-06-15T00:33:36.843Z,75.60
2019-06-15T00:36:05.604Z,75.70
2019-06-15T00:38:34.753Z,75.70
2019-06-15T00:41:03.696Z,75.80
2019-06-15T00:43:32.894Z,75.90
2019-06-15T00:46:01.936Z,75.90
2019-06-15T00:48:30.678Z,75.90
2019-06-15T00:50:59.193Z,75.80
2019-06-15T00:53:27.888Z,75.90
2019-06-15T00:55:56.381Z,75.90
2019-06-15T00:58:25.050Z,75.90
2019-06-15T01:00:53.844Z,75.90
2019-06-15T01:03:22.249Z,75.90
2019-06-15T01:05:50.738Z,75.80
2019-06-15T01:08:19.496Z,75.90
2019-06-15T01:10:48.183Z,76.00
2019-06-15T01:13:16.579Z,75.80
2019-06-15T01:15:45.263Z,75.70
2019-06-15T01:18:13.898Z,75.60
2019-06-15T01:20:42.741Z,75.70
2019-06-15T01:23:11.168Z,75.70
2019-06-15T01:25:40.036Z,75.70
2019-06-15T01:28:08.435Z,75.80
2019-06-15T01:30:39.000Z,75.80
2019-06-15T01:33:07.388Z,75.80
2019-06-15T01:35:36.122Z,75.70
2019-06-15T01:38:04.602Z,75.60
2019-06-15T01:40:33.101Z,75.60
2019-06-15T01:43:01.521Z,75.50
2019-06-15T01:45:30.069Z,75.60
2019-06-15T01:47:58.487Z,75.70
2019-06-15T01:50:27.128Z,75.70
2019-06-15T01:52:55.584Z,75.70
2019-06-15T01:55:23.993Z,75.70
2019-06-15T01:57:52.707Z,76.00
2019-06-15T02:00:29.452Z,76.10
2019-06-15T02:02:58.525Z,76.00
2019-06-15T02:05:27.279Z,75.90
2019-06-15T02:07:55.720Z,75.90
2019-06-15T02:10:32.069Z,75.90
2019-06-15T02:13:00.620Z,75.90
2019-06-15T02:15:29.175Z,75.80
2019-06-15T02:17:57.586Z,75.80
2019-06-15T02:20:26.097Z,75.70
2019-06-15T02:22:54.874Z,75.70
2019-06-15T02:25:35.283Z,75.80
2019-06-15T02:27:55.675Z,75.70
2019-06-15T02:30:27.102Z,75.80
2019-06-15T02:32:57.397Z,75.80
2019-06-15T02:35:26.274Z,75.80
2019-06-15T02:37:54.765Z,75.90
2019-06-15T02:40:24.556Z,75.80
2019-06-15T02:42:53.069Z,75.80
2019-06-15T02:45:22.543Z,75.90
2019-06-15T02:47:50.961Z,76.00
2019-06-15T02:50:20.041Z,75.90
2019-06-15T02:52:48.741Z,75.90
2019-06-15T02:55:19.244Z,75.80
2019-06-15T02:57:48.079Z,75.80
2019-06-15T03:00:19.866Z,75.90
2019-06-15T03:02:48.635Z,75.80
2019-06-15T03:05:17.997Z,75.70
2019-06-15T03:07:46.668Z,75.90
2019-06-15T03:10:15.379Z,76.10
2019-06-15T03:12:43.977Z,76.10
2019-06-15T03:15:12.748Z,76.20
2019-06-15T03:17:41.158Z,76.20
2019-06-15T03:20:10.126Z,76.00
2019-06-15T03:22:38.513Z,76.10
2019-06-15T03:25:11.608Z,76.20
2019-06-15T03:27:41.274Z,76.20
2019-06-15T03:30:10.197Z,76.20
2019-06-15T03:32:38.603Z,76.10
2019-06-15T03:35:08.464Z,75.90
2019-06-15T03:37:37.165Z,75.90
2019-06-15T03:40:07.302Z,76.00
2019-06-15T03:42:36.504Z,76.20
2019-06-15T03:45:07.752Z,76.10
2019-06-15T03:47:36.418Z,76.20
2019-06-15T03:50:08.115Z,76.20
2019-06-15T03:52:36.686Z,76.10
2019-06-15T03:55:06.162Z,76.10
2019-06-15T03:57:34.694Z,76.30
2019-06-15T04:00:03.113Z,76.40
2019-06-15T04:02:31.645Z,76.50
2019-06-15T04:05:00.440Z,76.60
2019-06-15T04:07:28.990Z,76.60
2019-06-15T04:09:57.702Z,76.60
2019-06-15T04:12:26.900Z,76.70
2019-06-15T04:14:55.406Z,76.70
2019-06-15T04:17:24.065Z,76.70
2019-06-15T04:19:53.087Z,76.70
2019-06-15T04:22:21.499Z,76.70
2019-06-15T04:24:49.966Z,76.60
2019-06-15T04:27:18.636Z,76.50
2019-06-15T04:29:47.035Z,76.40
2019-06-15T04:32:16.589Z,76.30
2019-06-15T04:34:45.257Z,76.30
2019-06-15T04:37:13.764Z,76.30
2019-06-15T04:39:42.203Z,76.20
2019-06-15T04:42:10.713Z,76.30
2019-06-15T04:44:39.483Z,76.50
2019-06-15T04:47:07.937Z,76.20
2019-06-15T04:49:36.388Z,76.20
2019-06-15T04:52:04.974Z,76.10
2019-06-15T04:54:34.350Z,75.90
2019-06-15T04:57:02.875Z,75.70
2019-06-15T04:59:31.286Z,75.70
2019-06-15T05:01:59.730Z,75.60
2019-06-15T05:04:28.164Z,75.50
2019-06-15T05:06:57.647Z,75.40
2019-06-15T05:09:26.664Z,75.20
2019-06-15T05:11:55.353Z,75.00
2019-06-15T05:14:24.075Z,75.10
2019-06-15T05:16:52.524Z,74.90
2019-06-15T05:19:21.057Z,74.50
2019-06-15T05:21:49.446Z,74.20
2019-06-15T05:24:17.840Z,73.80
2019-06-15T05:26:46.569Z,73.60
2019-06-15T05:29:15.097Z,73.70
2019-06-15T05:31:43.526Z,73.80
2019-06-15T05:34:12.177Z,73.70
2019-06-15T05:36:40.595Z,73.60
2019-06-15T05:39:09.415Z,73.60
2019-06-15T05:41:38.130Z,73.60
2019-06-15T05:44:06.549Z,73.60
2019-06-15T05:46:35.031Z,73.70
2019-06-15T05:49:03.470Z,73.70
2019-06-15T05:51:31.871Z,73.80
2019-06-15T05:54:00.445Z,73.90
2019-06-15T05:56:28.894Z,74.10
2019-06-15T05:58:57.301Z,74.10
2019-06-15T06:01:25.703Z,74.00
2019-06-15T06:03:54.123Z,74.10
2019-06-15T06:06:22.853Z,74.30
2019-06-15T06:08:51.552Z,74.30
2019-06-15T06:11:20.007Z,74.40
2019-06-15T06:13:48.529Z,74.30
2019-06-15T06:16:17.101Z,74.30
2019-06-15T06:18:45.817Z,74.20
2019-06-15T06:21:14.222Z,73.80
2019-06-15T06:23:42.822Z,73.60
2019-06-15T06:26:11.261Z,73.80
2019-06-15T06:28:39.850Z,73.80
2019-06-15T06:31:08.275Z,74.10
2019-06-15T06:33:37.020Z,74.10
2019-06-15T06:36:06.375Z,73.50
2019-06-15T06:38:35.260Z,73.30
2019-06-15T06:41:04.082Z,73.10
2019-06-15T06:43:32.730Z,72.80
2019-06-15T06:46:01.504Z,72.60
2019-06-15T06:48:30.154Z,72.70
2019-06-15T06:50:58.599Z,72.60
2019-06-15T06:53:27.213Z,72.40
2019-06-15T06:55:55.804Z,71.90
2019-06-15T06:58:25.078Z,71.70
2019-06-15T07:00:53.667Z,71.80
2019-06-15T07:03:22.120Z,71.80
2019-06-15T07:05:50.539Z,71.20
2019-06-15T07:08:18.929Z,70.70
2019-06-15T07:10:47.406Z,71.10
2019-06-15T07:13:15.819Z,70.70
2019-06-15T07:15:44.228Z,69.50
2019-06-15T07:18:12.733Z,69.40
2019-06-15T07:20:41.140Z,69.30
2019-06-15T07:23:09.946Z,68.70
2019-06-15T07:25:39.382Z,68.40
2019-06-15T07:28:08.680Z,68.40
2019-06-15T07:30:37.426Z,67.90
2019-06-15T07:33:05.997Z,67.50
2019-06-15T07:35:34.798Z,67.40
2019-06-15T07:38:03.695Z,66.90
2019-06-15T07:40:32.371Z,67.10
2019-06-15T07:43:01.043Z,67.10
2019-06-15T07:45:29.489Z,66.50
2019-06-15T07:47:57.967Z,65.90
2019-06-15T07:50:26.439Z,65.70
2019-06-15T07:52:54.875Z,65.50
2019-06-15T07:55:23.705Z,65.40
2019-06-15T07:57:52.126Z,65.70
2019-06-15T08:00:20.776Z,65.10
2019-06-15T08:02:49.247Z,64.60
2019-06-15T08:05:17.866Z,63.70
2019-06-15T08:07:46.316Z,63.40
2019-06-15T08:10:14.734Z,63.70
2019-06-15T08:12:43.146Z,63.40
2019-06-15T08:15:12.438Z,64.20
2019-06-15T08:17:41.594Z,64.00
2019-06-15T08:20:11.732Z,63.70
2019-06-15T08:22:40.287Z,64.30
2019-06-15T08:25:10.255Z,63.60
2019-06-15T08:27:39.075Z,63.20
2019-06-15T08:30:08.974Z,62.60
2019-06-15T08:32:38.366Z,63.60
2019-06-15T08:35:07.114Z,64.30
2019-06-15T08:37:35.711Z,64.10
2019-06-15T08:40:06.225Z,64.10
2019-06-15T08:42:34.788Z,63.90
2019-06-15T08:45:04.254Z,62.90
2019-06-15T08:47:32.727Z,62.60
2019-06-15T08:50:01.161Z,63.10
2019-06-15T08:52:29.989Z,62.50
2019-06-15T08:54:58.454Z,62.50
2019-06-15T08:57:26.874Z,62.30
2019-06-15T08:59:55.299Z,61.90
2019-06-15T09:02:23.741Z,61.60
2019-06-15T09:04:52.160Z,61.70
2019-06-15T09:07:20.823Z,61.30
2019-06-15T09:09:49.297Z,60.70
2019-06-15T09:12:17.712Z,60.90
2019-06-15T09:14:46.137Z,60.10
2019-06-15T09:17:14.903Z,60.20
2019-06-15T09:19:43.701Z,60.60
2019-06-15T09:22:12.169Z,60.30
2019-06-15T09:24:40.960Z,60.20
2019-06-15T09:27:09.644Z,60.20
2019-06-15T09:29:38.362Z,58.90
2019-06-15T09:32:06.998Z,58.30
2019-06-15T09:34:35.532Z,57.90
2019-06-15T09:37:04.322Z,57.50
2019-06-15T09:39:33.200Z,57.30
2019-06-15T09:42:02.541Z,57.00
2019-06-15T09:44:31.039Z,57.50
2019-06-15T09:46:59.471Z,57.60
2019-06-15T09:49:27.882Z,57.30
2019-06-15T09:51:56.650Z,57.50
2019-06-15T09:54:27.930Z,57.80
2019-06-15T09:56:55.729Z,58.30
2019-06-15T09:59:26.265Z,58.50
2019-06-15T10:01:54.570Z,58.30
2019-06-15T10:04:22.971Z,58.50
2019-06-15T10:06:51.380Z,59.00
2019-06-15T10:09:20.153Z,59.50
2019-06-15T10:11:48.992Z,59.70
2019-06-15T10:14:17.686Z,60.10
2019-06-15T10:16:46.480Z,59.40
2019-06-15T10:19:14.959Z,59.90
2019-06-15T10:21:43.703Z,60.60
2019-06-15T10:24:12.372Z,60.20
2019-06-15T10:26:40.854Z,59.40
2019-06-15T10:29:10.078Z,59.70
2019-06-15T10:31:38.508Z,58.90
2019-06-15T10:34:06.993Z,59.20
2019-06-15T10:36:35.424Z,59.10
2019-06-15T10:39:05.815Z,59.00
2019-06-15T10:41:34.215Z,58.20
2019-06-15T10:44:03.697Z,58.50
2019-06-15T10:46:33.109Z,58.10
2019-06-15T10:49:01.895Z,57.80
2019-06-15T10:51:30.499Z,57.30
2019-06-15T10:53:59.922Z,57.30
2019-06-15T10:56:28.837Z,56.90
2019-06-15T10:58:57.242Z,56.20
2019-06-15T11:01:25.687Z,56.60
2019-06-15T11:03:54.106Z,55.10
2019-06-15T11:06:22.588Z,55.30
2019-06-15T11:08:51.216Z,55.40
2019-06-15T11:11:22.035Z,55.40
2019-06-15T11:13:51.607Z,53.70
2019-06-15T11:16:20.727Z,54.30
2019-06-15T11:18:49.393Z,54.60
2019-06-15T11:21:18.204Z,54.80
2019-06-15T11:23:46.655Z,54.70
2019-06-15T11:26:15.368Z,54.60
2019-06-15T11:28:43.895Z,55.30
2019-06-15T11:31:12.481Z,55.10
2019-06-15T11:33:40.880Z,55.50
2019-06-15T11:36:09.505Z,55.40
2019-06-15T11:38:38.311Z,55.70
2019-06-15T11:41:06.694Z,55.20
2019-06-15T11:43:35.116Z,55.30
2019-06-15T11:46:03.785Z,54.30
2019-06-15T11:48:32.475Z,54.30
2019-06-15T11:51:00.886Z,53.90
2019-06-15T11:53:29.623Z,54.60
2019-06-15T11:55:58.144Z,55.10
2019-06-15T11:58:26.548Z,54.90
2019-06-15T12:00:55.298Z,54.10
2019-06-15T12:03:23.802Z,54.30
2019-06-15T12:05:52.374Z,54.00
2019-06-15T12:08:20.838Z,54.50
2019-06-15T12:10:49.486Z,52.90
2019-06-15T12:13:18.139Z,54.10
2019-06-15T12:15:46.579Z,53.80
2019-06-15T12:18:14.996Z,54.30
2019-06-15T12:20:43.401Z,54.80
2019-06-15T12:23:12.081Z,54.70
2019-06-15T12:25:40.617Z,53.50
2019-06-15T12:28:09.389Z,53.50
2019-06-15T12:30:46.590Z,53.60
2019-06-15T12:33:10.216Z,53.60
2019-06-15T12:35:38.648Z,52.80
2019-06-15T12:38:07.070Z,52.90
2019-06-15T12:40:35.494Z,52.60
2019-06-15T12:43:04.328Z,52.10
2019-06-15T12:45:33.159Z,52.90
2019-06-15T12:48:01.882Z,52.10
2019-06-15T12:50:30.438Z,52.70
2019-06-15T12:52:59.322Z,52.10
2019-06-15T12:55:27.852Z,52.40
2019-06-15T12:57:56.446Z,52.50
2019-06-15T13:00:28.009Z,52.90
2019-06-15T13:02:56.465Z,52.20
2019-06-15T13:05:25.230Z,52.50
2019-06-15T13:07:53.660Z,51.50
2019-06-15T13:10:22.438Z,52.50
2019-06-15T13:12:53.211Z,52.10
2019-06-15T13:15:22.600Z,51.40
2019-06-15T13:17:51.891Z,52.20
2019-06-15T13:20:21.758Z,50.20
2019-06-15T13:22:50.615Z,50.00
2019-06-15T13:25:19.222Z,50.60
2019-06-15T13:27:47.681Z,50.90
2019-06-15T13:30:20.763Z,51.20
2019-06-15T13:32:50.099Z,50.90
2019-06-15T13:35:19.047Z,50.30
2019-06-15T13:37:47.759Z,49.70
2019-06-15T13:40:17.260Z,50.20
2019-06-15T13:42:46.451Z,51.00
2019-06-15T13:45:16.535Z,50.00
2019-06-15T13:47:44.936Z,49.20
2019-06-15T13:50:15.485Z,48.30
2019-06-15T13:52:45.104Z,48.90
2019-06-15T13:55:14.579Z,49.20
2019-06-15T13:57:43.303Z,49.90
2019-06-15T14:00:13.098Z,49.00
2019-06-15T14:02:41.619Z,47.70
2019-06-15T14:05:10.527Z,48.00
2019-06-15T14:07:39.939Z,49.30
2019-06-15T14:10:09.240Z,48.80
2019-06-15T14:12:37.640Z,47.80
2019-06-15T14:15:08.063Z,48.20
2019-06-15T14:17:39.651Z,48.30
2019-06-15T14:20:07.864Z,48.20
2019-06-15T14:22:36.287Z,48.80
2019-06-15T14:25:09.044Z,48.50
2019-06-15T14:27:37.466Z,48.40
2019-06-15T14:30:07.984Z,48.60
2019-06-15T14:32:37.022Z,48.70
2019-06-15T14:35:06.832Z,48.10
2019-06-15T14:37:35.329Z,47.30
2019-06-15T14:40:05.042Z,43.50
2019-06-15T14:42:33.514Z,44.60
2019-06-15T14:45:01.927Z,44.00
2019-06-15T14:47:30.347Z,45.00
2019-06-15T14:49:58.862Z,44.50
2019-06-15T14:52:27.965Z,44.70
2019-06-15T14:54:56.741Z,46.00
2019-06-15T14:57:27.152Z,46.10
2019-06-15T15:00:04.000Z,45.20
2019-06-15T15:02:26.353Z,44.80
2019-06-15T15:04:56.511Z,45.40
2019-06-15T15:07:26.291Z,45.30
2019-06-15T15:09:56.746Z,45.20
2019-06-15T15:12:26.644Z,44.90
2019-06-15T15:14:56.535Z,45.20
2019-06-15T15:17:26.787Z,44.40
2019-06-15T15:19:57.443Z,44.30
2019-06-15T15:22:26.788Z,44.30
2019-06-15T15:24:56.275Z,44.20
2019-06-15T15:27:26.952Z,44.60
2019-06-15T15:29:57.007Z,44.90
2019-06-15T15:32:31.332Z,45.40
2019-06-15T15:34:56.239Z,44.90
2019-06-15T15:37:26.837Z,45.20
2019-06-15T15:39:56.509Z,45.60
2019-06-15T15:42:26.615Z,44.80
2019-06-15T15:44:56.619Z,45.00
2019-06-15T15:47:27.486Z,44.90
2019-06-15T15:49:57.626Z,44.40
2019-06-15T15:52:26.849Z,44.60
2019-06-15T15:54:56.471Z,44.90
2019-06-15T15:57:26.514Z,44.20
2019-06-15T15:59:56.426Z,42.40
2019-06-15T16:02:31.004Z,41.40
2019-06-15T16:04:57.531Z,40.40
2019-06-15T16:07:28.034Z,40.10
2019-06-15T16:09:56.762Z,39.70
2019-06-15T16:12:25.458Z,41.40
2019-06-15T16:14:56.315Z,43.00
2019-06-15T16:17:26.609Z,43.70
2019-06-15T16:19:56.350Z,43.60
2019-06-15T16:22:26.376Z,43.40
2019-06-15T16:24:56.485Z,44.30
2019-06-15T16:27:26.484Z,44.70
2019-06-15T16:29:56.619Z,44.10
2019-06-15T16:32:26.390Z,44.00
2019-06-15T16:34:54.956Z,43.30
2019-06-15T16:37:25.850Z,42.30
2019-06-15T16:39:53.509Z,42.70
2019-06-15T16:42:22.317Z,42.50
2019-06-15T16:44:50.726Z,43.00
2019-06-15T16:47:19.117Z,43.50
2019-06-15T16:49:47.994Z,43.00
2019-06-15T16:52:16.529Z,42.80
2019-06-15T16:54:46.968Z,42.00
2019-06-15T16:57:16.135Z,42.00
2019-06-15T16:59:46.835Z,42.40
2019-06-15T17:02:17.163Z,43.00
2019-06-15T17:04:47.466Z,42.60
2019-06-15T17:07:17.450Z,42.60
2019-06-15T17:09:46.608Z,43.70
2019-06-15T17:12:16.911Z,43.80
2019-06-15T17:14:45.957Z,43.40
2019-06-15T17:17:17.104Z,42.50
2019-06-15T17:19:46.698Z,42.20
2019-06-15T17:22:20.710Z,42.80
2019-06-15T17:24:45.994Z,42.80
2019-06-15T17:27:16.940Z,41.90
2019-06-15T17:29:46.887Z,41.70
2019-06-15T17:32:17.025Z,41.90
2019-06-15T17:34:46.915Z,42.10
2019-06-15T17:37:17.257Z,42.50
2019-06-15T17:39:46.749Z,42.70
2019-06-15T17:42:16.376Z,42.60
2019-06-15T17:44:46.183Z,42.60
2019-06-15T17:47:16.956Z,42.80
2019-06-15T17:49:46.922Z,42.50
2019-06-15T17:52:16.899Z,43.30
2019-06-15T17:54:46.692Z,43.60
2019-06-15T17:57:15.396Z,43.50
2019-06-15T17:59:46.863Z,44.20
2019-06-15T18:02:16.964Z,44.10
2019-06-15T18:04:47.364Z,44.40
2019-06-15T18:07:16.817Z,44.80
2019-06-15T18:09:46.630Z,45.00
2019-06-15T18:12:16.359Z,45.30
2019-06-15T18:14:46.349Z,45.20
2019-06-15T18:17:17.137Z,45.40
2019-06-15T18:19:47.004Z,45.30
2019-06-15T18:22:17.035Z,45.30
2019-06-15T18:24:46.702Z,45.50
2019-06-15T18:27:17.018Z,45.10
2019-06-15T18:29:46.464Z,45.60
2019-06-15T18:32:17.073Z,45.90
2019-06-15T18:34:46.477Z,45.90
2019-06-15T18:37:17.305Z,46.20
2019-06-15T18:39:46.855Z,47.00
2019-06-15T18:42:16.389Z,47.60
2019-06-15T18:44:47.649Z,47.80
2019-06-15T18:47:16.534Z,47.90
2019-06-15T18:49:47.343Z,47.80
2019-06-15T18:52:17.257Z,47.90
2019-06-15T18:54:46.755Z,47.90
2019-06-15T18:57:17.536Z,47.90
2019-06-15T18:59:47.406Z,48.20
2019-06-15T19:02:16.292Z,48.60
2019-06-15T19:04:45.114Z,49.00
2019-06-15T19:07:16.063Z,49.20
2019-06-15T19:09:46.436Z,49.40
2019-06-15T19:12:16.664Z,49.50
2019-06-15T19:14:46.911Z,49.90
2019-06-15T19:17:16.500Z,50.50
2019-06-15T19:19:46.790Z,50.90
2019-06-15T19:22:17.197Z,51.10
2019-06-15T19:24:50.324Z,51.60
2019-06-15T19:27:16.852Z,52.10
2019-06-15T19:29:48.515Z,52.30
2019-06-15T19:32:17.453Z,52.70
2019-06-15T19:34:51.125Z,53.00
2019-06-15T19:37:19.341Z,52.90
2019-06-15T19:39:48.056Z,53.30
2019-06-15T19:42:17.546Z,53.90
2019-06-15T19:44:46.088Z,54.00
2019-06-15T19:47:16.369Z,53.70
2019-06-15T19:49:46.696Z,54.40
2019-06-15T19:52:16.889Z,54.70
2019-06-15T19:54:45.530Z,54.70
2019-06-15T19:57:13.975Z,54.60
2019-06-15T19:59:42.415Z,54.50
2019-06-15T20:02:11.006Z,54.70
2019-06-15T20:04:39.555Z,54.70
2019-06-15T20:07:08.276Z,54.70
2019-06-15T20:09:37.183Z,55.20
2019-06-15T20:12:06.707Z,55.40
2019-06-15T20:14:36.717Z,55.60
2019-06-15T20:17:07.347Z,55.40
2019-06-15T20:19:37.699Z,55.70
2019-06-15T20:22:06.658Z,55.90
2019-06-15T20:24:36.419Z,55.70
2019-06-15T20:27:09.706Z,55.80
2019-06-15T20:29:36.126Z,56.00
2019-06-15T20:32:06.804Z,56.00
2019-06-15T20:34:37.090Z,56.30
2019-06-15T20:37:05.452Z,56.40
2019-06-15T20:39:36.111Z,56.50
2019-06-15T20:42:07.414Z,56.10
2019-06-15T20:44:36.722Z,56.40
2019-06-15T20:47:06.598Z,56.60
2019-06-15T20:49:36.978Z,56.80
2019-06-15T20:52:07.133Z,56.60
2019-06-15T20:54:35.804Z,57.10
2019-06-15T20:57:06.433Z,57.30
2019-06-15T20:59:37.011Z,57.70
2019-06-15T21:02:06.756Z,57.80
2019-06-15T21:04:36.327Z,58.00
2019-06-15T21:07:06.574Z,58.10
2019-06-15T21:09:36.429Z,58.20
2019-06-15T21:12:06.634Z,58.00
2019-06-15T21:14:36.588Z,58.40
2019-06-15T21:17:06.705Z,58.50
2019-06-15T21:19:36.229Z,58.50
2019-06-15T21:22:06.348Z,58.40
2019-06-15T21:24:37.243Z,58.70
2019-06-15T21:27:06.284Z,58.50
2019-06-15T21:29:37.047Z,58.60
2019-06-15T21:32:05.587Z,58.80
2019-06-15T21:34:36.252Z,59.00
2019-06-15T21:37:06.621Z,59.30
2019-06-15T21:39:36.471Z,59.30
2019-06-15T21:42:05.464Z,59.40
2019-06-15T21:44:35.963Z,59.50
2019-06-15T21:47:04.098Z,59.70
2019-06-15T21:49:32.870Z,59.90
2019-06-15T21:52:01.369Z,59.90
2019-06-15T21:54:29.825Z,59.80
2019-06-15T21:56:58.407Z,60.00
2019-06-15T21:59:26.841Z,60.00
2019-06-15T22:01:55.259Z,60.30
2019-06-15T22:04:25.895Z,60.00
2019-06-15T22:06:56.394Z,60.20
2019-06-15T22:09:26.509Z,60.50
2019-06-15T22:11:56.171Z,60.60
2019-06-15T22:14:26.567Z,60.60
2019-06-15T22:16:56.906Z,60.40
2019-06-15T22:19:26.191Z,60.10
2019-06-15T22:21:55.043Z,60.10
2019-06-15T22:24:23.726Z,60.30
2019-06-15T22:26:52.605Z,60.60
2019-06-15T22:29:21.296Z,60.80
2019-06-15T22:31:49.914Z,61.20
2019-06-15T22:34:18.584Z,61.00
2019-06-15T22:36:47.997Z,60.90
2019-06-15T22:39:17.249Z,61.10
2019-06-15T22:41:47.002Z,61.20
2019-06-15T22:44:16.916Z,61.20
2019-06-15T22:46:46.441Z,61.10
2019-06-15T22:49:16.125Z,61.40
2019-06-15T22:51:45.917Z,61.50
2019-06-15T22:54:16.554Z,61.40
2019-06-15T22:56:46.575Z,61.50
2019-06-15T22:59:16.868Z,61.50
2019-06-15T23:01:46.115Z,61.70
2019-06-15T23:04:17.068Z,61.50
2019-06-15T23:06:47.989Z,60.90
2019-06-15T23:09:16.676Z,60.90
2019-06-15T23:11:46.759Z,61.10
2019-06-15T23:14:17.212Z,61.20
2019-06-15T23:16:47.469Z,61.30
2019-06-15T23:19:17.158Z,61.30
2019-06-15T23:21:46.332Z,61.40
2019-06-15T23:24:16.631Z,61.60
2019-06-15T23:26:46.171Z,61.40
2019-06-15T23:29:16.453Z,61.20
2019-06-15T23:31:46.064Z,61.30
2019-06-15T23:34:16.261Z,61.40
2019-06-15T23:36:56.961Z,61.50
2019-06-15T23:39:22.470Z,61.60
2019-06-15T23:41:50.919Z,61.20
2019-06-15T23:44:19.786Z,61.30
2019-06-15T23:46:48.233Z,61.30
2019-06-15T23:49:16.652Z,61.20
2019-06-15T23:51:46.763Z,61.20
2019-06-15T23:54:15.385Z,61.40
2019-06-15T23:56:46.067Z,61.60
2019-06-15T23:59:14.007Z,61.50
